sensor_id;sensor_type;location;lat;lon;timestamp;P1;durP1;ratioP1;P2;durP2;ratioP2
6177;SDS011;3122;48.208;11.174;2023-11-21T00:01:30;3.90;;;1.70;;
6177;SDS011;3122;48.208;11.174;2023-11-21T00:06:30;4.70;;;1.40;;
6177;SDS011;3122;48.208;11.174;2023-11-21T00:11:31;2.60;;;1.50;;
6177;SDS011;3122;48.208;11.174;2023-11-21T00:16:32;3.97;;;1.27;;
6177;SDS011;3122;48.208;11.174;2023-11-21T00:21:32;2.50;;;1.30;;
6177;SDS011;3122;48.208;11.174;2023-11-21T00:26:33;1.90;;;1.30;;
6177;SDS011;3122;48.208;11.174;2023-11-21T00:31:36;3.23;;;1.17;;
6177;SDS011;3122;48.208;11.174;2023-11-21T00:36:37;2.57;;;1.30;;
6177;SDS011;3122;48.208;11.174;2023-11-21T00:41:38;5.17;;;1.30;;
6177;SDS011;3122;48.208;11.174;2023-11-21T00:46:38;5.27;;;1.17;;
6177;SDS011;3122;48.208;11.174;2023-11-21T00:51:39;3.80;;;1.27;;
6177;SDS011;3122;48.208;11.174;2023-11-21T00:56:39;4.73;;;1.37;;
6177;SDS011;3122;48.208;11.174;2023-11-21T01:01:40;4.13;;;1.60;;
6177;SDS011;3122;48.208;11.174;2023-11-21T01:06:40;2.73;;;1.37;;
6177;SDS011;3122;48.208;11.174;2023-11-21T01:11:41;2.60;;;1.33;;
6177;SDS011;3122;48.208;11.174;2023-11-21T01:16:43;1.60;;;1.50;;
6177;SDS011;3122;48.208;11.174;2023-11-21T01:21:43;3.13;;;1.40;;
6177;SDS011;3122;48.208;11.174;2023-11-21T01:26:44;2.70;;;2.43;;
6177;SDS011;3122;48.208;11.174;2023-11-21T01:31:46;6.70;;;1.70;;
6177;SDS011;3122;48.208;11.174;2023-11-21T01:36:47;3.60;;;2.20;;
6177;SDS011;3122;48.208;11.174;2023-11-21T01:41:47;4.20;;;1.57;;
6177;SDS011;3122;48.208;11.174;2023-11-21T01:46:48;3.83;;;1.80;;
6177;SDS011;3122;48.208;11.174;2023-11-21T01:51:49;3.53;;;1.53;;
6177;SDS011;3122;48.208;11.174;2023-11-21T01:56:50;3.97;;;1.60;;
6177;SDS011;3122;48.208;11.174;2023-11-21T02:01:51;5.87;;;1.77;;
6177;SDS011;3122;48.208;11.174;2023-11-21T02:06:52;6.43;;;1.20;;
6177;SDS011;3122;48.208;11.174;2023-11-21T02:11:54;2.30;;;1.43;;
6177;SDS011;3122;48.208;11.174;2023-11-21T02:16:54;3.40;;;1.53;;
6177;SDS011;3122;48.208;11.174;2023-11-21T02:21:57;5.03;;;1.40;;
6177;SDS011;3122;48.208;11.174;2023-11-21T02:27:00;2.50;;;1.87;;
6177;SDS011;3122;48.208;11.174;2023-11-21T02:32:01;1.43;;;1.20;;
6177;SDS011;3122;48.208;11.174;2023-11-21T02:37:02;2.50;;;1.43;;
6177;SDS011;3122;48.208;11.174;2023-11-21T02:42:02;4.27;;;1.30;;
6177;SDS011;3122;48.208;11.174;2023-11-21T02:47:04;5.03;;;1.40;;
6177;SDS011;3122;48.208;11.174;2023-11-21T02:52:04;3.97;;;1.57;;
6177;SDS011;3122;48.208;11.174;2023-11-21T02:57:05;5.40;;;1.63;;
6177;SDS011;3122;48.208;11.174;2023-11-21T03:02:05;4.03;;;1.33;;
6177;SDS011;3122;48.208;11.174;2023-11-21T03:07:09;3.10;;;1.53;;
6177;SDS011;3122;48.208;11.174;2023-11-21T03:12:09;4.67;;;1.20;;
6177;SDS011;3122;48.208;11.174;2023-11-21T03:17:12;1.70;;;1.43;;
6177;SDS011;3122;48.208;11.174;2023-11-21T03:22:12;4.83;;;1.43;;
6177;SDS011;3122;48.208;11.174;2023-11-21T03:27:13;8.03;;;1.50;;
6177;SDS011;3122;48.208;11.174;2023-11-21T03:32:13;2.87;;;1.40;;
6177;SDS011;3122;48.208;11.174;2023-11-21T03:37:14;3.20;;;1.40;;
6177;SDS011;3122;48.208;11.174;2023-11-21T03:42:14;5.67;;;1.40;;
6177;SDS011;3122;48.208;11.174;2023-11-21T03:47:15;1.20;;;1.10;;
6177;SDS011;3122;48.208;11.174;2023-11-21T03:52:16;2.10;;;1.30;;
6177;SDS011;3122;48.208;11.174;2023-11-21T03:57:16;3.13;;;1.37;;
6177;SDS011;3122;48.208;11.174;2023-11-21T04:02:17;2.97;;;1.40;;
6177;SDS011;3122;48.208;11.174;2023-11-21T04:07:17;2.27;;;1.67;;
6177;SDS011;3122;48.208;11.174;2023-11-21T04:12:18;3.03;;;1.30;;
6177;SDS011;3122;48.208;11.174;2023-11-21T04:17:19;2.73;;;1.00;;
6177;SDS011;3122;48.208;11.174;2023-11-21T04:22:20;2.00;;;1.20;;
6177;SDS011;3122;48.208;11.174;2023-11-21T04:27:20;1.40;;;1.20;;
6177;SDS011;3122;48.208;11.174;2023-11-21T04:32:21;2.70;;;2.00;;
6177;SDS011;3122;48.208;11.174;2023-11-21T04:37:21;2.17;;;2.07;;
6177;SDS011;3122;48.208;11.174;2023-11-21T04:42:22;3.57;;;1.87;;
6177;SDS011;3122;48.208;11.174;2023-11-21T04:47:23;3.10;;;1.80;;
6177;SDS011;3122;48.208;11.174;2023-11-21T04:52:23;4.93;;;1.73;;
6177;SDS011;3122;48.208;11.174;2023-11-21T04:57:24;4.10;;;1.90;;
6177;SDS011;3122;48.208;11.174;2023-11-21T05:02:25;4.43;;;2.10;;
6177;SDS011;3122;48.208;11.174;2023-11-21T05:07:25;2.40;;;1.10;;
6177;SDS011;3122;48.208;11.174;2023-11-21T05:12:30;1.73;;;1.10;;
6177;SDS011;3122;48.208;11.174;2023-11-21T05:17:40;3.17;;;1.10;;
6177;SDS011;3122;48.208;11.174;2023-11-21T05:22:44;1.43;;;0.90;;
6177;SDS011;3122;48.208;11.174;2023-11-21T05:27:47;1.47;;;1.10;;
6177;SDS011;3122;48.208;11.174;2023-11-21T05:32:48;1.20;;;1.10;;
6177;SDS011;3122;48.208;11.174;2023-11-21T05:37:49;1.00;;;0.80;;
6177;SDS011;3122;48.208;11.174;2023-11-21T05:42:50;2.50;;;1.10;;
6177;SDS011;3122;48.208;11.174;2023-11-21T05:47:51;4.83;;;1.10;;
6177;SDS011;3122;48.208;11.174;2023-11-21T05:52:52;0.97;;;0.97;;
6177;SDS011;3122;48.208;11.174;2023-11-21T05:57:52;2.97;;;0.93;;
6177;SDS011;3122;48.208;11.174;2023-11-21T06:02:53;0.93;;;0.93;;
6177;SDS011;3122;48.208;11.174;2023-11-21T06:07:54;2.50;;;0.90;;
6177;SDS011;3122;48.208;11.174;2023-11-21T06:12:58;1.50;;;1.10;;
6177;SDS011;3122;48.208;11.174;2023-11-21T06:17:59;1.43;;;1.20;;
6177;SDS011;3122;48.208;11.174;2023-11-21T06:22:59;1.27;;;1.00;;
6177;SDS011;3122;48.208;11.174;2023-11-21T06:28:03;1.57;;;1.00;;
6177;SDS011;3122;48.208;11.174;2023-11-21T06:33:04;0.90;;;0.90;;
6177;SDS011;3122;48.208;11.174;2023-11-21T06:38:06;2.07;;;1.10;;
6177;SDS011;3122;48.208;11.174;2023-11-21T06:43:09;1.10;;;1.00;;
6177;SDS011;3122;48.208;11.174;2023-11-21T06:48:09;1.10;;;1.00;;
6177;SDS011;3122;48.208;11.174;2023-11-21T06:53:10;1.90;;;1.20;;
6177;SDS011;3122;48.208;11.174;2023-11-21T06:58:11;1.93;;;1.20;;
6177;SDS011;3122;48.208;11.174;2023-11-21T07:03:11;1.10;;;1.10;;
6177;SDS011;3122;48.208;11.174;2023-11-21T07:08:12;2.03;;;1.30;;
6177;SDS011;3122;48.208;11.174;2023-11-21T07:13:13;2.70;;;1.20;;
6177;SDS011;3122;48.208;11.174;2023-11-21T07:18:13;2.10;;;1.40;;
6177;SDS011;3122;48.208;11.174;2023-11-21T07:23:14;2.53;;;1.47;;
6177;SDS011;3122;48.208;11.174;2023-11-21T07:28:15;3.33;;;1.60;;
6177;SDS011;3122;48.208;11.174;2023-11-21T07:33:16;1.30;;;1.20;;
6177;SDS011;3122;48.208;11.174;2023-11-21T07:38:17;1.40;;;1.30;;
6177;SDS011;3122;48.208;11.174;2023-11-21T07:43:18;2.73;;;1.30;;
6177;SDS011;3122;48.208;11.174;2023-11-21T07:48:19;1.60;;;1.50;;
6177;SDS011;3122;48.208;11.174;2023-11-21T07:53:20;3.10;;;1.37;;
6177;SDS011;3122;48.208;11.174;2023-11-21T07:58:21;2.80;;;1.80;;
6177;SDS011;3122;48.208;11.174;2023-11-21T08:03:22;1.57;;;1.47;;
6177;SDS011;3122;48.208;11.174;2023-11-21T08:08:23;2.60;;;1.30;;
6177;SDS011;3122;48.208;11.174;2023-11-21T08:13:24;1.30;;;1.20;;
6177;SDS011;3122;48.208;11.174;2023-11-21T08:18:26;3.07;;;2.07;;
6177;SDS011;3122;48.208;11.174;2023-11-21T08:23:26;3.53;;;1.63;;
6177;SDS011;3122;48.208;11.174;2023-11-21T08:28:27;5.70;;;1.60;;
6177;SDS011;3122;48.208;11.174;2023-11-21T08:33:27;1.47;;;1.37;;
6177;SDS011;3122;48.208;11.174;2023-11-21T08:38:28;1.80;;;1.70;;
6177;SDS011;3122;48.208;11.174;2023-11-21T08:43:29;4.80;;;1.90;;
6177;SDS011;3122;48.208;11.174;2023-11-21T08:48:30;2.23;;;1.60;;
6177;SDS011;3122;48.208;11.174;2023-11-21T08:53:31;4.57;;;1.97;;
6177;SDS011;3122;48.208;11.174;2023-11-21T08:58:31;1.90;;;1.50;;
6177;SDS011;3122;48.208;11.174;2023-11-21T09:03:32;1.60;;;1.50;;
6177;SDS011;3122;48.208;11.174;2023-11-21T09:08:34;3.40;;;1.60;;
6177;SDS011;3122;48.208;11.174;2023-11-21T09:13:35;3.43;;;1.60;;
6177;SDS011;3122;48.208;11.174;2023-11-21T09:18:36;1.50;;;1.40;;
6177;SDS011;3122;48.208;11.174;2023-11-21T09:23:36;3.53;;;1.80;;
6177;SDS011;3122;48.208;11.174;2023-11-21T09:28:37;5.73;;;1.90;;
6177;SDS011;3122;48.208;11.174;2023-11-21T09:33:38;1.90;;;1.70;;
6177;SDS011;3122;48.208;11.174;2023-11-21T09:38:38;5.23;;;2.30;;
6177;SDS011;3122;48.208;11.174;2023-11-21T09:43:39;3.97;;;2.20;;
6177;SDS011;3122;48.208;11.174;2023-11-21T09:48:40;4.10;;;2.20;;
6177;SDS011;3122;48.208;11.174;2023-11-21T09:53:41;2.07;;;1.87;;
6177;SDS011;3122;48.208;11.174;2023-11-21T09:58:44;3.00;;;1.90;;
6177;SDS011;3122;48.208;11.174;2023-11-21T10:03:45;2.87;;;2.13;;
6177;SDS011;3122;48.208;11.174;2023-11-21T10:08:47;4.40;;;2.17;;
6177;SDS011;3122;48.208;11.174;2023-11-21T10:13:52;3.17;;;2.00;;
6177;SDS011;3122;48.208;11.174;2023-11-21T10:18:54;3.83;;;1.97;;
6177;SDS011;3122;48.208;11.174;2023-11-21T10:23:58;5.13;;;1.93;;
6177;SDS011;3122;48.208;11.174;2023-11-21T10:28:59;3.30;;;2.07;;
6177;SDS011;3122;48.208;11.174;2023-11-21T10:39:18;2.80;;;1.87;;
6177;SDS011;3122;48.208;11.174;2023-11-21T10:44:20;1.83;;;1.73;;
6177;SDS011;3122;48.208;11.174;2023-11-21T10:49:26;2.20;;;2.00;;
6177;SDS011;3122;48.208;11.174;2023-11-21T10:54:27;3.30;;;1.97;;
6177;SDS011;3122;48.208;11.174;2023-11-21T10:59:28;1.63;;;1.53;;
6177;SDS011;3122;48.208;11.174;2023-11-21T11:04:31;2.47;;;1.73;;
6177;SDS011;3122;48.208;11.174;2023-11-21T11:09:32;2.00;;;1.70;;
6177;SDS011;3122;48.208;11.174;2023-11-21T11:14:33;3.93;;;1.50;;
6177;SDS011;3122;48.208;11.174;2023-11-21T11:19:34;1.90;;;1.80;;
6177;SDS011;3122;48.208;11.174;2023-11-21T11:24:42;1.70;;;1.53;;
6177;SDS011;3122;48.208;11.174;2023-11-21T11:40:48;3.80;;;2.87;;
6177;SDS011;3122;48.208;11.174;2023-11-21T11:45:56;4.03;;;2.30;;
6177;SDS011;3122;48.208;11.174;2023-11-21T11:51:05;2.50;;;1.63;;
6177;SDS011;3122;48.208;11.174;2023-11-21T11:56:31;3.27;;;2.20;;
6177;SDS011;3122;48.208;11.174;2023-11-21T12:01:34;1.77;;;1.57;;
6177;SDS011;3122;48.208;11.174;2023-11-21T12:06:35;2.17;;;1.97;;
6177;SDS011;3122;48.208;11.174;2023-11-21T12:11:36;2.80;;;1.80;;
6177;SDS011;3122;48.208;11.174;2023-11-21T12:16:37;1.90;;;1.80;;
6177;SDS011;3122;48.208;11.174;2023-11-21T12:21:37;3.20;;;2.10;;
6177;SDS011;3122;48.208;11.174;2023-11-21T12:26:41;1.77;;;1.67;;
6177;SDS011;3122;48.208;11.174;2023-11-21T12:31:42;3.73;;;3.40;;
6177;SDS011;3122;48.208;11.174;2023-11-21T12:36:43;1.93;;;1.70;;
6177;SDS011;3122;48.208;11.174;2023-11-21T12:41:45;2.40;;;2.30;;
6177;SDS011;3122;48.208;11.174;2023-11-21T12:46:46;5.80;;;4.70;;
6177;SDS011;3122;48.208;11.174;2023-11-21T12:51:46;1.93;;;1.70;;
6177;SDS011;3122;48.208;11.174;2023-11-21T12:56:47;2.90;;;1.90;;
6177;SDS011;3122;48.208;11.174;2023-11-21T13:01:49;2.03;;;1.50;;
6177;SDS011;3122;48.208;11.174;2023-11-21T13:06:51;4.97;;;3.83;;
6177;SDS011;3122;48.208;11.174;2023-11-21T13:11:59;3.80;;;2.90;;
6177;SDS011;3122;48.208;11.174;2023-11-21T13:17:03;1.90;;;1.80;;
6177;SDS011;3122;48.208;11.174;2023-11-21T13:22:04;2.30;;;1.97;;
6177;SDS011;3122;48.208;11.174;2023-11-21T13:27:04;2.13;;;1.60;;
6177;SDS011;3122;48.208;11.174;2023-11-21T13:32:06;1.57;;;1.47;;
6177;SDS011;3122;48.208;11.174;2023-11-21T13:37:11;3.10;;;1.80;;
6177;SDS011;3122;48.208;11.174;2023-11-21T13:42:12;3.53;;;1.80;;
6177;SDS011;3122;48.208;11.174;2023-11-21T13:47:14;2.50;;;1.43;;
6177;SDS011;3122;48.208;11.174;2023-11-21T13:52:14;4.37;;;1.50;;
6177;SDS011;3122;48.208;11.174;2023-11-21T13:57:15;3.70;;;1.80;;
6177;SDS011;3122;48.208;11.174;2023-11-21T14:02:16;4.20;;;3.13;;
6177;SDS011;3122;48.208;11.174;2023-11-21T14:07:18;1.50;;;1.37;;
6177;SDS011;3122;48.208;11.174;2023-11-21T14:12:35;1.87;;;1.43;;
6177;SDS011;3122;48.208;11.174;2023-11-21T14:17:39;2.53;;;2.33;;
6177;SDS011;3122;48.208;11.174;2023-11-21T14:22:41;4.10;;;1.90;;
6177;SDS011;3122;48.208;11.174;2023-11-21T14:27:42;2.20;;;1.60;;
6177;SDS011;3122;48.208;11.174;2023-11-21T14:32:42;1.43;;;1.33;;
6177;SDS011;3122;48.208;11.174;2023-11-21T14:37:43;1.93;;;1.53;;
6177;SDS011;3122;48.208;11.174;2023-11-21T14:42:44;1.67;;;1.57;;
6177;SDS011;3122;48.208;11.174;2023-11-21T14:47:47;1.77;;;1.40;;
6177;SDS011;3122;48.208;11.174;2023-11-21T14:52:58;1.43;;;1.03;;
6177;SDS011;3122;48.208;11.174;2023-11-21T14:57:59;1.57;;;1.47;;
6177;SDS011;3122;48.208;11.174;2023-11-21T15:03:04;2.33;;;1.50;;
6177;SDS011;3122;48.208;11.174;2023-11-21T15:08:05;1.50;;;1.50;;
6177;SDS011;3122;48.208;11.174;2023-11-21T15:13:20;9.07;;;5.97;;
6177;SDS011;3122;48.208;11.174;2023-11-21T15:18:23;7.57;;;3.83;;
6177;SDS011;3122;48.208;11.174;2023-11-21T15:23:24;6.20;;;4.60;;
6177;SDS011;3122;48.208;11.174;2023-11-21T15:28:25;14.40;;;8.47;;
6177;SDS011;3122;48.208;11.174;2023-11-21T15:33:25;4.50;;;3.83;;
6177;SDS011;3122;48.208;11.174;2023-11-21T15:38:27;2.60;;;2.40;;
6177;SDS011;3122;48.208;11.174;2023-11-21T15:43:28;4.77;;;4.20;;
6177;SDS011;3122;48.208;11.174;2023-11-21T15:48:28;12.50;;;8.17;;
6177;SDS011;3122;48.208;11.174;2023-11-21T15:53:30;9.20;;;5.93;;
6177;SDS011;3122;48.208;11.174;2023-11-21T15:58:32;7.80;;;5.90;;
6177;SDS011;3122;48.208;11.174;2023-11-21T16:03:34;4.60;;;3.70;;
6177;SDS011;3122;48.208;11.174;2023-11-21T16:08:35;1.80;;;1.70;;
6177;SDS011;3122;48.208;11.174;2023-11-21T16:13:36;3.00;;;2.80;;
6177;SDS011;3122;48.208;11.174;2023-11-21T16:18:38;3.37;;;3.10;;
6177;SDS011;3122;48.208;11.174;2023-11-21T16:23:39;4.13;;;3.33;;
6177;SDS011;3122;48.208;11.174;2023-11-21T16:28:39;5.27;;;3.90;;
6177;SDS011;3122;48.208;11.174;2023-11-21T16:33:41;3.43;;;3.13;;
6177;SDS011;3122;48.208;11.174;2023-11-21T16:38:42;4.73;;;2.93;;
6177;SDS011;3122;48.208;11.174;2023-11-21T16:43:42;4.53;;;4.13;;
6177;SDS011;3122;48.208;11.174;2023-11-21T16:48:43;4.50;;;4.17;;
6177;SDS011;3122;48.208;11.174;2023-11-21T16:53:44;4.80;;;4.40;;
6177;SDS011;3122;48.208;11.174;2023-11-21T16:58:44;4.30;;;3.90;;
6177;SDS011;3122;48.208;11.174;2023-11-21T17:03:45;5.20;;;4.80;;
6177;SDS011;3122;48.208;11.174;2023-11-21T17:08:46;6.60;;;5.60;;
6177;SDS011;3122;48.208;11.174;2023-11-21T17:13:46;3.70;;;3.40;;
6177;SDS011;3122;48.208;11.174;2023-11-21T17:18:47;3.37;;;3.07;;
6177;SDS011;3122;48.208;11.174;2023-11-21T17:23:48;3.47;;;3.17;;
6177;SDS011;3122;48.208;11.174;2023-11-21T17:28:48;3.20;;;3.00;;
6177;SDS011;3122;48.208;11.174;2023-11-21T17:33:50;3.20;;;2.90;;
6177;SDS011;3122;48.208;11.174;2023-11-21T17:38:50;3.40;;;3.10;;
6177;SDS011;3122;48.208;11.174;2023-11-21T17:43:52;3.03;;;2.77;;
6177;SDS011;3122;48.208;11.174;2023-11-21T17:48:53;4.73;;;3.43;;
6177;SDS011;3122;48.208;11.174;2023-11-21T17:53:54;6.07;;;3.67;;
6177;SDS011;3122;48.208;11.174;2023-11-21T17:59:01;4.70;;;4.23;;
6177;SDS011;3122;48.208;11.174;2023-11-21T18:04:02;8.43;;;6.93;;
6177;SDS011;3122;48.208;11.174;2023-11-21T18:09:04;4.87;;;4.30;;
6177;SDS011;3122;48.208;11.174;2023-11-21T18:14:08;8.60;;;6.37;;
6177;SDS011;3122;48.208;11.174;2023-11-21T18:19:10;5.97;;;5.37;;
6177;SDS011;3122;48.208;11.174;2023-11-21T18:24:10;5.80;;;5.20;;
6177;SDS011;3122;48.208;11.174;2023-11-21T18:29:11;7.17;;;5.83;;
6177;SDS011;3122;48.208;11.174;2023-11-21T18:34:17;7.47;;;6.33;;
6177;SDS011;3122;48.208;11.174;2023-11-21T18:39:18;8.77;;;6.87;;
6177;SDS011;3122;48.208;11.174;2023-11-21T18:44:18;14.57;;;8.80;;
6177;SDS011;3122;48.208;11.174;2023-11-21T18:49:19;9.87;;;7.43;;
6177;SDS011;3122;48.208;11.174;2023-11-21T18:54:20;13.60;;;8.17;;
6177;SDS011;3122;48.208;11.174;2023-11-21T18:59:21;7.30;;;5.90;;
6177;SDS011;3122;48.208;11.174;2023-11-21T19:04:21;10.13;;;8.23;;
6177;SDS011;3122;48.208;11.174;2023-11-21T19:09:24;9.33;;;6.80;;
6177;SDS011;3122;48.208;11.174;2023-11-21T19:14:25;10.17;;;7.30;;
6177;SDS011;3122;48.208;11.174;2023-11-21T19:19:25;12.17;;;8.40;;
6177;SDS011;3122;48.208;11.174;2023-11-21T19:24:26;13.67;;;10.53;;
6177;SDS011;3122;48.208;11.174;2023-11-21T19:29:29;15.03;;;10.43;;
6177;SDS011;3122;48.208;11.174;2023-11-21T19:34:30;16.73;;;10.60;;
6177;SDS011;3122;48.208;11.174;2023-11-21T19:39:30;13.17;;;9.40;;
6177;SDS011;3122;48.208;11.174;2023-11-21T19:44:31;12.70;;;9.20;;
6177;SDS011;3122;48.208;11.174;2023-11-21T19:49:32;11.93;;;9.00;;
6177;SDS011;3122;48.208;11.174;2023-11-21T19:54:34;11.20;;;8.17;;
6177;SDS011;3122;48.208;11.174;2023-11-21T19:59:34;13.50;;;8.77;;
6177;SDS011;3122;48.208;11.174;2023-11-21T20:04:37;12.17;;;8.53;;
6177;SDS011;3122;48.208;11.174;2023-11-21T20:09:39;11.73;;;8.70;;
6177;SDS011;3122;48.208;11.174;2023-11-21T20:14:39;11.90;;;8.77;;
6177;SDS011;3122;48.208;11.174;2023-11-21T20:19:42;9.20;;;7.33;;
6177;SDS011;3122;48.208;11.174;2023-11-21T20:24:43;10.10;;;7.80;;
6177;SDS011;3122;48.208;11.174;2023-11-21T20:29:44;10.73;;;7.90;;
6177;SDS011;3122;48.208;11.174;2023-11-21T20:34:45;10.03;;;8.27;;
6177;SDS011;3122;48.208;11.174;2023-11-21T20:39:46;14.50;;;7.20;;
6177;SDS011;3122;48.208;11.174;2023-11-21T20:44:48;10.47;;;8.13;;
6177;SDS011;3122;48.208;11.174;2023-11-21T20:49:49;10.47;;;8.13;;
6177;SDS011;3122;48.208;11.174;2023-11-21T20:54:51;10.50;;;8.50;;
6177;SDS011;3122;48.208;11.174;2023-11-21T20:59:51;14.07;;;7.63;;
6177;SDS011;3122;48.208;11.174;2023-11-21T21:04:52;11.13;;;8.17;;
6177;SDS011;3122;48.208;11.174;2023-11-21T21:09:53;13.30;;;8.30;;
6177;SDS011;3122;48.208;11.174;2023-11-21T21:14:53;11.77;;;8.70;;
6177;SDS011;3122;48.208;11.174;2023-11-21T21:19:56;11.23;;;7.87;;
6177;SDS011;3122;48.208;11.174;2023-11-21T21:24:56;10.30;;;7.80;;
6177;SDS011;3122;48.208;11.174;2023-11-21T21:29:57;13.03;;;9.10;;
6177;SDS011;3122;48.208;11.174;2023-11-21T21:34:58;11.40;;;8.30;;
6177;SDS011;3122;48.208;11.174;2023-11-21T21:39:58;15.37;;;9.10;;
6177;SDS011;3122;48.208;11.174;2023-11-21T21:44:59;13.67;;;9.23;;
6177;SDS011;3122;48.208;11.174;2023-11-21T21:49:59;17.70;;;10.40;;
6177;SDS011;3122;48.208;11.174;2023-11-21T21:55:00;21.20;;;9.70;;
6177;SDS011;3122;48.208;11.174;2023-11-21T22:00:02;14.73;;;9.60;;
6177;SDS011;3122;48.208;11.174;2023-11-21T22:05:13;15.57;;;10.37;;
6177;SDS011;3122;48.208;11.174;2023-11-21T22:10:14;15.30;;;10.43;;
6177;SDS011;3122;48.208;11.174;2023-11-21T22:15:14;17.53;;;10.73;;
6177;SDS011;3122;48.208;11.174;2023-11-21T22:20:15;17.90;;;10.97;;
6177;SDS011;3122;48.208;11.174;2023-11-21T22:25:16;15.40;;;10.30;;
6177;SDS011;3122;48.208;11.174;2023-11-21T22:30:17;20.43;;;11.23;;
6177;SDS011;3122;48.208;11.174;2023-11-21T22:35:19;16.87;;;11.37;;
6177;SDS011;3122;48.208;11.174;2023-11-21T22:40:19;16.30;;;10.97;;
6177;SDS011;3122;48.208;11.174;2023-11-21T22:45:20;23.87;;;12.73;;
6177;SDS011;3122;48.208;11.174;2023-11-21T22:50:22;19.50;;;11.60;;
6177;SDS011;3122;48.208;11.174;2023-11-21T22:55:23;22.70;;;12.60;;
6177;SDS011;3122;48.208;11.174;2023-11-21T23:00:23;18.50;;;11.97;;
6177;SDS011;3122;48.208;11.174;2023-11-21T23:05:29;20.50;;;12.53;;
6177;SDS011;3122;48.208;11.174;2023-11-21T23:10:30;20.83;;;13.07;;
6177;SDS011;3122;48.208;11.174;2023-11-21T23:15:31;21.17;;;12.07;;
6177;SDS011;3122;48.208;11.174;2023-11-21T23:20:31;19.10;;;12.00;;
6177;SDS011;3122;48.208;11.174;2023-11-21T23:25:32;17.83;;;11.57;;
6177;SDS011;3122;48.208;11.174;2023-11-21T23:30:32;23.23;;;13.20;;
6177;SDS011;3122;48.208;11.174;2023-11-21T23:35:33;20.13;;;12.33;;
6177;SDS011;3122;48.208;11.174;2023-11-21T23:40:34;24.77;;;13.80;;
6177;SDS011;3122;48.208;11.174;2023-11-21T23:45:35;22.83;;;14.03;;
6177;SDS011;3122;48.208;11.174;2023-11-21T23:50:35;21.23;;;12.27;;
6177;SDS011;3122;48.208;11.174;2023-11-21T23:55:36;21.37;;;12.80;;
